Time;durP1;ratioP1;P1;durP2;ratioP2;P2;SDS_P1;SDS_P2;PMS_P1;PMS_P2;Temp;Humidity;BMP_temperature;BMP_pressure;BME280_temperature;BME280_humidity;BME280_pressure;Samples;Min_cycle;Max_cycle;Signal;HPM_P1;HPM_P2
2023/08/14 00:02:07;;;;;;;11.13;4.63;;;;;;;21.01;100.00;98456.75;5138586;28;20043;-62
2023/08/14 00:04:33;;;;;;;11.93;3.95;;;;;;;21.01;100.00;98447.63;5138027;28;20051;-63
2023/08/14 00:06:59;;;;;;;9.45;4.57;;;;;;;20.97;100.00;98455.31;5138345;28;20199;-62
2023/08/14 00:09:25;;;;;;;9.18;4.70;;;;;;;20.96;100.00;98485.19;5138427;27;20055;-60
2023/08/14 00:11:51;;;;;;;11.75;4.82;;;;;;;20.97;100.00;98495.09;5137937;28;20142;-62
2023/08/14 00:14:17;;;;;;;9.20;4.18;;;;;;;21.02;100.00;98447.16;5138049;28;20137;-60
2023/08/14 00:16:43;;;;;;;10.23;4.30;;;;;;;21.03;100.00;98459.09;5138016;28;20082;-60
2023/08/14 00:19:09;;;;;;;10.25;4.40;;;;;;;20.95;100.00;98478.06;5137972;28;20439;-60
2023/08/14 00:21:35;;;;;;;7.25;4.82;;;;;;;20.90;100.00;98517.66;5137917;28;20061;-62
2023/08/14 00:24:02;;;;;;;12.15;5.22;;;;;;;20.89;100.00;98516.06;5138165;28;20082;-62
2023/08/14 00:26:29;;;;;;;8.05;5.00;;;;;;;20.84;100.00;98556.44;5137731;28;20377;-62
2023/08/14 00:28:54;;;;;;;10.55;5.53;;;;;;;20.84;100.00;98584.28;5138113;28;20055;-61
2023/08/14 00:31:20;;;;;;;15.45;6.03;;;;;;;20.86;100.00;98575.50;5137628;28;20417;-62
2023/08/14 00:33:46;;;;;;;14.73;6.00;;;;;;;20.85;100.00;98527.34;5138113;28;20043;-63
2023/08/14 00:36:12;;;;;;;8.73;4.60;;;;;;;20.89;100.00;98499.34;5137523;28;20050;-63
2023/08/14 00:38:38;;;;;;;13.18;5.13;;;;;;;20.91;100.00;98541.47;5137679;27;20116;-62
2023/08/14 00:41:04;;;;;;;11.60;4.85;;;;;;;21.05;100.00;98529.84;5137774;28;20130;-61
2023/08/14 00:43:31;;;;;;;12.35;4.72;;;;;;;21.04;100.00;98553.38;5137627;28;20086;-61
2023/08/14 00:45:58;;;;;;;12.57;5.35;;;;;;;20.89;100.00;98647.00;5137686;28;20050;-61
2023/08/14 00:48:25;;;;;;;11.73;5.22;;;;;;;21.00;100.00;98669.75;5137376;28;20047;-62
2023/08/14 00:50:52;;;;;;;11.75;4.88;;;;;;;20.83;100.00;98682.25;5137558;28;20146;-62
2023/08/14 00:53:18;;;;;;;9.88;4.75;;;;;;;20.78;100.00;98797.78;5137452;28;20479;-62
2023/08/14 00:55:45;;;;;;;7.72;5.30;;;;;;;20.74;100.00;98816.63;5137881;28;20075;-62
2023/08/14 00:58:12;;;;;;;7.60;4.88;;;;;;;20.79;100.00;98721.38;5137358;28;20153;-61
2023/08/14 01:00:39;;;;;;;8.70;5.25;;;;;;;20.85;100.00;98690.94;5137698;28;20146;-60
2023/08/14 01:03:06;;;;;;;11.38;4.93;;;;;;;20.89;100.00;98674.88;5137213;28;20138;-62
2023/08/14 01:05:32;;;;;;;7.22;4.75;;;;;;;20.61;100.00;98760.88;5137028;28;20385;-60
2023/08/14 01:07:58;;;;;;;6.25;4.20;;;;;;;20.90;100.00;98729.41;5137316;27;20192;-61
2023/08/14 01:10:33;;;;;;;11.32;4.80;;;;;;;21.03;100.00;98718.25;5137335;27;20461;-62
2023/08/14 01:13:05;;;;;;;7.70;4.45;;;;;;;21.07;100.00;98677.88;5140732;28;20327;-60
2023/08/14 01:15:34;;;;;;;7.18;4.68;;;;;;;20.99;100.00;98664.63;5140744;28;20043;-62
2023/08/14 01:18:02;;;;;;;9.90;5.15;;;;;;;21.06;100.00;98673.53;5141141;28;20043;-61
2023/08/14 01:20:31;;;;;;;10.90;4.75;;;;;;;21.01;100.00;98704.75;5140643;28;20047;-59
2023/08/14 01:23:05;;;;;;;8.50;4.50;;;;;;;21.02;100.00;98661.72;5140970;28;20047;-59
2023/08/14 01:25:33;;;;;;;7.80;5.03;;;;;;;20.89;100.00;98714.69;5140880;28;20142;-62
2023/08/14 01:28:00;;;;;;;8.60;4.50;;;;;;;20.98;100.00;98739.09;5141013;28;20082;-61
2023/08/14 01:30:26;;;;;;;6.15;5.05;;;;;;;20.90;100.00;98740.53;5140781;28;20146;-61
2023/08/14 01:32:53;;;;;;;12.75;8.52;;;;;;;20.99;100.00;98723.91;5140447;28;20462;-61
2023/08/14 01:35:20;;;;;;;16.20;4.90;;;;;;;20.96;100.00;98677.47;5140777;28;20099;-61
2023/08/14 01:37:54;;;;;;;10.02;5.20;;;;;;;20.98;100.00;98749.44;5140520;27;20133;-60
2023/08/14 01:40:23;;;;;;;;;;;;;;;21.04;100.00;98700.28;5141047;28;20083;-60
2023/08/14 01:42:57;;;;;;;11.23;4.88;;;;;;;20.89;100.00;98727.81;5140322;28;20290;-61
2023/08/14 01:45:27;;;;;;;12.80;5.03;;;;;;;20.53;100.00;98823.59;5140653;28;20331;-62
2023/08/14 01:47:55;;;;;;;9.98;5.28;;;;;;;20.78;100.00;98847.94;5140249;28;20150;-59
2023/08/14 01:50:24;;;;;;;9.32;5.82;;;;;;;20.87;100.00;98816.66;5140694;28;20043;-62
2023/08/14 01:52:50;;;;;;;9.10;4.80;;;;;;;20.82;100.00;98808.81;5140497;28;20047;-60
2023/08/14 01:55:16;;;;;;;11.77;5.25;;;;;;;20.88;100.00;98846.06;5140401;28;20047;-60
2023/08/14 01:57:42;;;;;;;11.23;4.53;;;;;;;20.89;100.00;98836.47;5140124;28;20397;-60
2023/08/14 02:00:09;;;;;;;13.82;4.53;;;;;;;20.70;100.00;98893.94;5140273;28;20055;-60
2023/08/14 02:02:36;;;;;;;8.48;5.38;;;;;;;20.77;100.00;98955.03;5140331;28;20062;-62
2023/08/14 02:05:02;;;;;;;8.52;4.90;;;;;;;20.76;100.00;98972.16;5140004;28;20053;-59
2023/08/14 02:07:28;;;;;;;9.98;4.90;;;;;;;20.74;100.00;98961.47;5140032;27;20434;-62
2023/08/14 02:09:54;;;;;;;10.30;5.00;;;;;;;20.76;100.00;98977.72;5140031;28;20047;-62
2023/08/14 02:12:20;;;;;;;11.65;5.32;;;;;;;20.79;100.00;98988.00;5139879;28;20061;-62
2023/08/14 02:14:46;;;;;;;9.63;4.70;;;;;;;20.74;100.00;98967.03;5139941;28;20073;-62
2023/08/14 02:17:13;;;;;;;8.80;5.13;;;;;;;20.85;100.00;98947.25;5140299;28;20153;-62
2023/08/14 02:19:38;;;;;;;8.02;4.35;;;;;;;20.76;100.00;98975.75;5139687;28;20047;-62
2023/08/14 02:22:04;;;;;;;9.07;4.70;;;;;;;20.77;100.00;98970.97;5139339;27;20117;-62
2023/08/14 02:24:30;;;;;;;10.43;4.70;;;;;;;20.65;100.00;99031.72;5139905;28;20049;-61
2023/08/14 02:26:56;;;;;;;11.55;4.93;;;;;;;20.67;100.00;99070.28;5139761;28;20134;-61
2023/08/14 02:29:22;;;;;;;11.05;5.35;;;;;;;20.67;100.00;99096.13;5139896;28;20071;-60
2023/08/14 02:31:50;;;;;;;15.52;5.50;;;;;;;20.66;100.00;99127.22;5139789;28;20062;-59
2023/08/14 02:34:32;;;;;;;9.05;5.07;;;;;;;20.59;100.00;99136.53;5139871;28;20053;-62
2023/08/14 02:36:58;;;;;;;13.30;5.05;;;;;;;20.60;100.00;99193.81;5139549;28;20154;-60
2023/08/14 02:39:24;;;;;;;9.35;4.75;;;;;;;20.46;100.00;99258.13;5139941;27;20051;-60
2023/08/14 02:41:50;;;;;;;11.48;5.28;;;;;;;20.52;100.00;99256.44;5139606;28;20047;-60
2023/08/14 02:44:16;;;;;;;9.65;5.47;;;;;;;;;;5139828;28;20133;-60
2023/08/14 02:46:42;;;;;;;16.13;5.60;;;;;;;20.48;100.00;99288.31;5139182;28;20171;-59
2023/08/14 02:49:08;;;;;;;10.45;5.38;;;;;;;20.43;100.00;99236.72;5139530;28;20082;-60
2023/08/14 02:51:34;;;;;;;8.35;4.90;;;;;;;20.42;100.00;99285.25;5139477;28;20138;-62
2023/08/14 02:54:00;;;;;;;10.45;4.72;;;;;;;20.35;100.00;99318.81;5139410;28;20050;-61
2023/08/14 02:56:26;;;;;;;9.75;5.03;;;;;;;20.34;100.00;99345.09;5139463;28;20058;-62
2023/08/14 02:58:52;;;;;;;9.63;4.93;;;;;;;20.29;100.00;99331.66;5139072;28;20067;-62
2023/08/14 03:01:19;;;;;;;9.55;5.75;;;;;;;20.29;100.00;99354.69;5139506;28;20043;-62
2023/08/14 03:03:45;;;;;;;9.43;4.93;;;;;;;20.29;100.00;99396.47;5138975;28;20062;-62
2023/08/14 03:06:10;;;;;;;7.00;4.72;;;;;;;20.33;100.00;99388.84;5139353;28;20137;-62
2023/08/14 03:08:37;;;;;;;9.18;5.13;;;;;;;20.24;100.00;99382.25;5138948;27;20055;-62
2023/08/14 03:11:03;;;;;;;13.52;5.47;;;;;;;20.27;100.00;99371.06;5138887;28;20047;-62
2023/08/14 03:13:29;;;;;;;10.70;5.22;;;;;;;20.30;100.00;99367.44;5138943;28;20154;-61
2023/08/14 03:15:55;;;;;;;12.93;6.40;;;;;;;20.29;100.00;99409.59;5139256;28;20057;-60
2023/08/14 03:18:21;;;;;;;12.57;5.43;;;;;;;20.21;100.00;99454.25;5139058;28;20079;-60
2023/08/14 03:20:47;;;;;;;10.95;4.78;;;;;;;20.29;100.00;99448.56;5138963;28;20074;-60
2023/08/14 03:23:13;;;;;;;9.02;5.85;;;;;;;20.25;100.00;99445.06;5138802;28;20461;-62
2023/08/14 03:25:39;;;;;;;10.45;4.97;;;;;;;20.22;100.00;99471.75;5138903;28;20059;-62
2023/08/14 03:28:05;;;;;;;10.00;5.00;;;;;;;20.27;100.00;99487.97;5138894;28;20151;-62
2023/08/14 03:30:33;;;;;;;8.63;5.13;;;;;;;20.27;100.00;99493.56;5138639;28;20412;-60
2023/08/14 03:32:59;;;;;;;10.20;4.55;;;;;;;20.30;100.00;99495.50;5138918;28;20047;-59
2023/08/14 03:35:25;;;;;;;8.68;4.80;;;;;;;20.26;100.00;99485.59;5137634;27;20120;-61
2023/08/14 03:37:51;;;;;;;11.23;5.07;;;;;;;20.33;100.00;99491.88;5138722;27;20055;-62
2023/08/14 03:40:17;;;;;;;11.52;5.57;;;;;;;20.43;100.00;99459.47;5138514;28;20145;-63
2023/08/14 03:42:43;;;;;;;9.15;5.05;;;;;;;20.46;100.00;99414.09;5138874;28;20079;-61
2023/08/14 03:45:10;;;;;;;8.02;5.05;;;;;;;20.49;100.00;99402.06;5138321;28;20142;-62
2023/08/14 03:47:37;;;;;;;9.60;4.95;;;;;;;20.43;100.00;99418.50;5138491;28;20078;-60
2023/08/14 03:50:04;;;;;;;10.55;5.00;;;;;;;20.46;100.00;99453.06;5138811;28;20047;-60
2023/08/14 03:52:30;;;;;;;8.63;4.93;;;;;;;20.52;100.00;99439.44;5138482;28;20051;-62
2023/08/14 03:54:56;;;;;;;7.18;4.80;;;;;;;20.47;100.00;99457.41;5138490;28;20422;-61
2023/08/14 03:57:22;;;;;;;11.85;4.78;;;;;;;20.71;100.00;99393.34;5138356;28;20436;-61
2023/08/14 03:59:48;;;;;;;14.40;4.85;;;;;;;21.19;100.00;99311.09;5138306;28;20388;-59
2023/08/14 04:02:14;;;;;;;7.85;4.93;;;;;;;21.70;100.00;99124.59;5138329;28;20047;-62
2023/08/14 04:04:40;;;;;;;10.77;4.60;;;;;;;22.04;100.00;98892.31;5138438;28;20061;-59
2023/08/14 04:07:06;;;;;;;7.88;4.03;;;;;;;22.04;100.00;98819.75;5138014;28;20047;-60
2023/08/14 04:09:32;;;;;;;6.72;4.93;;;;;;;22.51;100.00;98752.66;5137804;27;20051;-60
2023/08/14 04:12:00;;;;;;;10.20;4.60;;;;;;;22.82;100.00;98603.78;5137881;28;20047;-60
2023/08/14 04:14:26;;;;;;;16.85;13.98;;;;;;;22.67;100.00;98570.06;5138488;28;20059;-61
2023/08/14 04:16:54;;;;;;;21.30;5.15;;;;;;;22.45;100.00;98553.38;5138081;28;20055;-62
2023/08/14 04:19:20;;;;;;;6.45;4.57;;;;;;;22.67;100.00;98580.47;5138088;28;20051;-62
2023/08/14 04:21:46;;;;;;;13.98;4.65;;;;;;;22.83;100.00;98526.31;5137902;28;20043;-61
2023/08/14 04:24:13;;;;;;;6.05;4.10;;;;;;;22.79;100.00;98446.22;5137922;28;20047;-61
2023/08/14 04:26:39;;;;;;;10.05;4.35;;;;;;;22.84;100.00;98489.53;5137923;28;20047;-61
2023/08/14 04:29:06;;;;;;;8.88;4.93;;;;;;;22.82;100.00;98488.44;5137839;28;20047;-60
2023/08/14 04:31:32;;;;;;;8.82;4.28;;;;;;;22.57;100.00;98487.47;5138075;28;20369;-62
2023/08/14 04:33:59;;;;;;;13.98;4.53;;;;;;;23.41;100.00;98511.44;5137708;28;20070;-62
2023/08/14 04:36:24;;;;;;;12.65;5.00;;;;;;;24.12;100.00;98325.38;5137973;28;20395;-63
2023/08/14 04:38:50;;;;;;;8.38;3.72;;;;;;;23.83;100.00;98289.66;5137420;27;20082;-62
2023/08/14 04:41:16;;;;;;;9.07;4.20;;;;;;;23.87;100.00;98287.47;5138006;28;20142;-61
2023/08/14 04:43:42;;;;;;;11.80;4.30;;;;;;;23.80;100.00;98288.59;5137417;28;20046;-60
2023/08/14 04:46:10;;;;;;;12.93;4.82;;;;;;;24.19;100.00;98316.63;5137412;27;20379;-60
2023/08/14 04:48:36;;;;;;;13.00;5.65;;;;;;;24.81;100.00;98331.84;5137359;28;20070;-60
2023/08/14 04:51:03;;;;;;;11.43;6.88;;;;;;;25.36;100.00;98412.66;5137506;28;20050;-60
2023/08/14 04:53:29;;;;;;;19.38;6.85;;;;;;;26.04;100.00;98507.97;5137588;28;20138;-60
2023/08/14 04:55:55;;;;;;;11.93;6.82;;;;;;;26.28;100.00;98622.25;5137326;28;20055;-61
2023/08/14 04:58:21;;;;;;;15.02;7.57;;;;;;;27.05;100.00;98702.72;5137370;28;20058;-61
2023/08/14 05:00:47;;;;;;;14.55;6.45;;;;;;;27.45;100.00;98754.75;5137173;28;20188;-62
2023/08/14 05:03:12;;;;;;;12.52;5.40;;;;;;;27.59;100.00;98786.94;5137424;28;20047;-62
2023/08/14 05:05:38;;;;;;;7.85;5.05;;;;;;;27.50;100.00;98810.38;5137002;28;20078;-63
2023/08/14 05:08:05;;;;;;;11.68;4.90;;;;;;;27.60;100.00;98791.31;5137284;27;20142;-62
2023/08/14 05:10:33;;;;;;;13.63;5.15;;;;;;;27.33;100.00;98793.22;5137002;28;20048;-60
2023/08/14 05:12:58;;;;;;;9.30;4.30;;;;;;;27.14;100.00;98766.59;5137399;28;20138;-62
2023/08/14 05:15:24;;;;;;;10.35;4.93;;;;;;;27.01;100.00;98740.78;5137157;28;20061;-61
2023/08/14 05:17:50;;;;;;;6.63;4.10;;;;;;;27.13;100.00;98748.16;5137083;28;20051;-60
2023/08/14 05:20:16;;;;;;;8.27;4.80;;;;;;;26.77;100.00;98707.16;5136971;28;20079;-60
2023/08/14 05:22:43;;;;;;;7.40;4.07;;;;;;;26.46;100.00;98661.41;5136941;28;20078;-63
2023/08/14 05:25:10;;;;;;;9.82;4.22;;;;;;;26.09;100.00;98587.97;5136870;28;20408;-62
2023/08/14 05:27:38;;;;;;;12.35;5.00;;;;;;;25.92;100.00;98527.94;5136816;28;20100;-61
2023/08/14 05:30:05;;;;;;;7.55;3.85;;;;;;;25.60;100.00;98507.97;5137055;28;20380;-61
2023/08/14 05:32:31;;;;;;;9.00;4.15;;;;;;;25.59;100.00;98486.75;5136744;28;20116;-60
2023/08/14 05:34:57;;;;;;;9.15;4.28;;;;;;;25.35;100.00;98453.19;5136978;28;20047;-63
2023/08/14 05:37:23;;;;;;;9.48;4.63;;;;;;;25.78;100.00;98527.41;5136408;27;20055;-63
2023/08/14 05:39:49;;;;;;;9.95;4.45;;;;;;;25.57;100.00;98522.97;5137030;28;20080;-60
2023/08/14 05:42:16;;;;;;;8.57;4.78;;;;;;;25.30;100.00;98477.06;5136447;28;20065;-60
2023/08/14 05:44:42;;;;;;;7.13;4.25;;;;;;;25.85;100.00;98453.28;5136723;28;20306;-60
2023/08/14 05:47:08;;;;;;;8.00;3.95;;;;;;;25.99;100.00;98508.66;5136271;28;20435;-60
2023/08/14 05:49:34;;;;;;;5.35;3.65;;;;;;;25.98;100.00;98580.13;5136577;28;20082;-60
2023/08/14 05:52:00;;;;;;;7.32;4.13;;;;;;;25.82;100.00;98586.22;5136637;28;20071;-60
2023/08/14 05:54:26;;;;;;;11.32;3.53;;;;;;;25.69;100.00;98617.38;5136413;28;20463;-57
2023/08/14 05:56:52;;;;;;;8.32;3.80;;;;;;;25.48;100.00;98596.00;5136788;27;20087;-60
2023/08/14 05:59:18;;;;;;;4.68;3.38;;;;;;;25.41;100.00;98551.50;5139968;28;20081;-62
2023/08/14 06:01:45;;;;;;;9.02;4.00;;;;;;;25.73;100.00;98623.56;5140087;28;20051;-60
2023/08/14 06:04:11;;;;;;;6.05;3.80;;;;;;;25.74;100.00;98621.53;5139811;28;20075;-63
2023/08/14 06:06:37;;;;;;;12.68;4.38;;;;;;;25.45;100.00;98588.56;5140035;28;20093;-56
2023/08/14 06:09:03;;;;;;;4.72;3.30;;;;;;;25.26;100.00;98543.81;5139607;27;20046;-59
2023/08/14 06:11:29;;;;;;;5.97;4.28;;;;;;;25.07;100.00;98540.34;5140145;28;20051;-62
2023/08/14 06:13:55;;;;;;;7.10;4.13;;;;;;;25.11;100.00;98515.72;5140023;28;20364;-66
2023/08/14 06:16:22;;;;;;;10.57;4.28;;;;;;;26.26;100.00;98616.34;5139690;28;20427;-63
2023/08/14 06:18:48;;;;;;;4.68;3.22;;;;;;;26.63;100.00;98717.94;5139503;28;20093;-64
2023/08/14 06:21:14;;;;;;;5.05;3.40;;;;;;;26.60;100.00;98757.47;5139687;28;20043;-59
2023/08/14 06:23:40;;;;;;;6.38;3.10;;;;;;;27.13;100.00;98791.13;5139515;28;20393;-63
2023/08/14 06:26:06;;;;;;;8.05;3.28;;;;;;;27.63;100.00;98847.44;5139428;28;20054;-63
2023/08/14 06:28:32;;;;;;;6.88;3.30;;;;;;;27.90;100.00;98887.78;5139762;28;20191;-65
2023/08/14 06:31:00;;;;;;;6.93;4.05;;;;;;;28.10;100.00;99042.03;5139385;28;20085;-67
2023/08/14 06:33:27;;;;;;;24.88;5.82;;;;;;;28.39;100.00;99049.69;5140172;28;20053;-57
2023/08/14 06:35:54;;;;;;;9.93;4.22;;;;;;;29.14;100.00;99007.84;5139766;28;20047;-58
2023/08/14 06:38:20;;;;;;;8.65;3.85;;;;;;;29.59;100.00;98996.97;5139638;27;20092;-57
2023/08/14 06:40:45;;;;;;;12.60;3.90;;;;;;;30.11;100.00;99036.50;5139339;28;20051;-58
2023/08/14 06:43:11;;;;;;;8.65;3.90;;;;;;;30.04;100.00;99057.53;5139399;28;20051;-59
2023/08/14 06:45:37;;;;;;;8.00;3.63;;;;;;;29.74;100.00;99029.50;5139228;28;20054;-64
2023/08/14 06:48:04;;;;;;;7.25;4.15;;;;;;;28.90;100.00;99003.19;5138829;28;20216;-67
2023/08/14 06:50:30;;;;;;;5.13;3.63;;;;;;;28.21;100.00;98942.78;5139055;28;20047;-67
2023/08/14 06:52:56;;;;;;;7.43;4.15;;;;;;;28.04;100.00;98937.66;5139123;28;20138;-62
2023/08/14 06:55:22;;;;;;;6.25;4.00;;;;;;;27.95;100.00;98898.34;5139311;28;20047;-66
2023/08/14 06:57:48;;;;;;;9.50;3.80;;;;;;;27.90;100.00;98860.38;5138807;28;20054;-66
2023/08/14 07:00:15;;;;;;;7.03;3.88;;;;;;;28.27;100.00;98904.16;5139147;28;20308;-60
2023/08/14 07:02:41;;;;;;;7.28;3.85;;;;;;;28.19;100.00;98942.47;5138940;28;20054;-62
2023/08/14 07:05:10;;;;;;;8.18;3.55;;;;;;;28.06;100.00;98912.59;5139139;28;20099;-59
2023/08/14 07:07:37;;;;;;;10.02;4.20;;;;;;;28.67;100.00;98948.53;5138734;27;20051;-60
2023/08/14 07:10:03;;;;;;;9.30;3.63;;;;;;;29.18;100.00;99011.22;5137846;27;20134;-58
2023/08/14 07:12:29;;;;;;;5.57;3.92;;;;;;;29.64;100.00;99025.31;5138991;28;20047;-57
2023/08/14 07:14:55;;;;;;;7.78;3.80;;;;;;;30.22;100.00;99070.53;5139176;28;20150;-55
2023/08/14 07:17:21;;;;;;;5.82;3.95;;;;;;;30.50;100.00;99106.75;5139073;28;20059;-63
2023/08/14 07:19:47;;;;;;;9.00;3.88;;;;;;;30.42;100.00;99095.91;5138956;28;20054;-66
2023/08/14 07:22:13;;;;;;;7.78;3.67;;;;;;;30.80;100.00;99088.19;5138911;28;20051;-61
2023/08/14 07:24:40;;;;;;;6.20;3.47;;;;;;;30.90;100.00;99112.16;5138631;28;20047;-57
2023/08/14 07:27:06;;;;;;;9.30;4.00;;;;;;;31.14;100.00;99136.47;5138684;28;20122;-61
2023/08/14 07:29:32;;;;;;;8.90;3.42;;;;;;;31.33;100.00;99134.78;5138772;28;20051;-60
2023/08/14 07:31:58;;;;;;;9.00;4.00;;;;;;;31.11;100.00;99134.66;5139162;28;20061;-63
2023/08/14 07:34:24;;;;;;;9.15;4.18;;;;;;;31.17;100.00;99118.47;5138567;28;20078;-66
2023/08/14 07:36:49;;;;;;;8.23;3.72;;;;;;;31.26;100.00;99117.50;5138429;28;20047;-65
2023/08/14 07:39:16;;;;;;;8.45;3.80;;;;;;;31.65;100.00;99143.13;5138197;27;20115;-62
2023/08/14 07:41:42;;;;;;;10.68;4.30;;;;;;;32.47;100.00;99139.44;5138294;28;20058;-58
2023/08/14 07:44:08;;;;;;;10.20;4.75;;;;;;;32.99;100.00;99167.22;5138808;28;20133;-59
2023/08/14 07:46:34;;;;;;;7.18;4.20;;;;;;;33.32;100.00;99177.72;5138618;28;20054;-58
2023/08/14 07:49:00;;;;;;;12.10;4.28;;;;;;;33.49;100.00;99189.09;5138433;28;20053;-63
2023/08/14 07:51:26;;;;;;;10.13;3.95;;;;;;;33.32;100.00;99196.84;5137972;28;20088;-65
2023/08/14 07:53:52;;;;;;;6.32;3.85;;;;;;;33.38;100.00;99201.22;5138128;28;20043;-64
2023/08/14 07:56:18;;;;;;;7.22;3.85;;;;;;;33.27;100.00;99193.50;5137796;28;20416;-67
2023/08/14 07:58:45;;;;;;;10.30;3.20;;;;;;;33.23;100.00;99186.56;5138244;28;20050;-65
2023/08/14 08:01:11;;;;;;;15.38;3.72;;;;;;;32.07;100.00;99173.41;5137917;28;20061;-65
2023/08/14 08:03:37;;;;;;;8.60;3.45;;;;;;;31.75;100.00;99161.44;5138281;28;20044;-64
2023/08/14 08:06:04;;;;;;;9.75;3.65;;;;;;;31.57;100.00;99150.59;5137728;28;20099;-60
2023/08/14 08:08:30;;;;;;;20.70;5.85;;;;;;;31.32;100.00;99161.56;5138106;27;20069;-60
2023/08/14 08:10:56;;;;;;;12.68;3.88;;;;;;;30.65;100.00;99158.28;5137722;28;20324;-61
2023/08/14 08:13:22;;;;;;;14.18;3.92;;;;;;;29.93;100.00;99128.84;5137862;28;20043;-63
2023/08/14 08:15:49;;;;;;;8.45;3.88;;;;;;;29.86;100.00;99091.81;5137952;28;20055;-63
2023/08/14 08:18:15;;;;;;;6.72;3.10;;;;;;;30.27;100.00;99123.53;5137505;28;20055;-61
2023/08/14 08:20:41;;;;;;;8.77;3.30;;;;;;;31.08;100.00;99163.97;5137126;27;20081;-65
2023/08/14 08:23:06;;;;;;;6.90;3.53;;;;;;;30.77;100.00;99170.50;5137579;28;20051;-64
2023/08/14 08:25:32;;;;;;;10.65;3.30;;;;;;;29.84;100.00;99156.50;5137661;28;20082;-63
2023/08/14 08:27:58;;;;;;;9.98;3.70;;;;;;;30.05;100.00;99149.50;5137541;28;20142;-61
2023/08/14 08:30:24;;;;;;;7.70;3.10;;;;;;;30.25;100.00;99143.03;5137466;28;20051;-59
2023/08/14 08:32:51;;;;;;;6.47;3.28;;;;;;;30.33;100.00;99149.81;5137514;28;20043;-59
2023/08/14 08:35:17;;;;;;;7.20;3.53;;;;;;;29.66;100.00;99154.78;5137919;28;20102;-58
2023/08/14 08:37:43;;;;;;;4.53;3.30;;;;;;;29.95;100.00;99165.09;5137284;27;20143;-57
2023/08/14 08:40:10;;;;;;;6.68;3.20;;;;;;;30.29;100.00;99174.72;5137714;28;20108;-59
2023/08/14 08:42:37;;;;;;;5.35;3.15;;;;;;;30.66;100.00;99182.47;5137418;28;20108;-64
2023/08/14 08:45:05;;;;;;;8.68;2.95;;;;;;;30.21;100.00;99196.22;5137095;28;20055;-65
2023/08/14 08:47:38;;;;;;;6.03;2.78;;;;;;;30.09;100.00;99191.69;5137281;28;20207;-62
2023/08/14 08:50:06;;;;;;;4.45;2.50;;;;;;;30.40;100.00;99213.63;5137395;28;20061;-60
2023/08/14 08:52:32;;;;;;;2.92;2.30;;;;;;;30.84;100.00;99223.78;5137489;28;20073;-62
2023/08/14 08:55:01;;;;;;;8.15;2.30;;;;;;;31.75;92.90;99237.19;5137156;28;20111;-60
2023/08/14 08:57:27;;;;;;;4.38;2.20;;;;;;;31.86;87.67;99240.09;5137438;28;20055;-64
2023/08/14 08:59:55;;;;;;;6.68;2.22;;;;;;;31.25;87.47;99246.97;5137218;28;20413;-59
2023/08/14 09:02:21;;;;;;;5.38;2.05;;;;;;;30.43;90.54;99238.09;5137521;28;20073;-57
2023/08/14 09:04:46;;;;;;;4.50;2.20;;;;;;;30.56;91.38;99249.78;5136895;28;20420;-57
2023/08/14 09:07:14;;;;;;;4.28;2.22;;;;;;;31.66;87.91;99252.38;5136954;27;20111;-60
2023/08/14 09:09:41;;;;;;;4.22;1.85;;;;;;;31.99;80.61;99253.81;5137066;28;20086;-63
2023/08/14 09:12:07;;;;;;;3.95;2.00;;;;;;;31.28;81.79;99248.78;5136858;28;20047;-59
2023/08/14 09:14:33;;;;;;;3.38;2.15;;;;;;;30.86;82.91;99243.88;5136913;28;20129;-65
2023/08/14 09:17:02;;;;;;;2.55;1.90;;;;;;;30.93;81.80;99247.03;5136964;28;20329;-63
2023/08/14 09:19:28;;;;;;;1.77;1.67;;;;;;;30.43;85.04;99250.16;5137256;28;20047;-64
2023/08/14 09:21:55;;;;;;;4.47;2.30;;;;;;;30.24;91.35;99238.41;5136883;28;20107;-63
2023/08/14 09:24:22;;;;;;;1.73;1.60;;;;;;;29.78;87.53;99252.50;5137231;28;20053;-60
2023/08/14 09:26:48;;;;;;;4.97;1.92;;;;;;;29.61;92.01;99255.13;5136841;28;20057;-65
2023/08/14 09:29:15;;;;;;;2.03;1.83;;;;;;;29.78;95.73;99239.16;5137185;28;20047;-65
2023/08/14 09:31:43;;;;;;;5.85;2.10;;;;;;;29.95;97.20;99242.16;5136641;27;20137;-61
2023/08/14 09:34:15;;;;;;;4.90;1.80;;;;;;;30.50;94.48;99239.69;5140634;28;20054;-60
2023/08/14 09:36:41;;;;;;;4.18;2.05;;;;;;;30.89;94.61;99238.00;5140460;28;20053;-67
2023/08/14 09:39:08;;;;;;;8.70;2.47;;;;;;;31.60;99.21;99240.25;5140255;27;20083;-65
2023/08/14 09:41:37;;;;;;;5.00;2.40;;;;;;;31.90;90.83;99254.06;5140519;28;20154;-64
2023/08/14 09:44:03;;;;;;;6.63;2.47;;;;;;;32.28;92.72;99244.09;5140502;28;20047;-58
2023/08/14 09:46:29;;;;;;;4.10;2.30;;;;;;;32.00;95.28;99252.53;5140493;28;20047;-56
2023/08/14 09:48:55;;;;;;;5.53;2.33;;;;;;;31.19;89.47;99254.69;5140180;28;20055;-58
2023/08/14 09:51:22;;;;;;;3.63;2.30;;;;;;;31.55;100.00;99235.31;5140536;28;20058;-65
2023/08/14 09:53:49;;;;;;;4.95;2.30;;;;;;;31.72;100.00;99241.81;5140025;28;20058;-64
2023/08/14 09:56:16;;;;;;;6.82;3.15;;;;;;;32.17;89.71;99250.53;5140318;28;20057;-62
2023/08/14 09:58:43;;;;;;;4.43;2.83;;;;;;;32.74;91.08;99254.22;5139942;28;20059;-65
2023/08/14 10:01:11;;;;;;;5.40;2.60;;;;;;;33.14;91.87;99250.09;5140297;28;20048;-68
2023/08/14 10:03:39;;;;;;;3.78;2.10;;;;;;;32.44;90.83;99260.41;5139985;28;20058;-57
2023/08/14 10:06:07;;;;;;;3.03;2.72;;;;;;;32.81;91.67;99257.31;5139881;28;20059;-64
2023/08/14 10:08:34;;;;;;;5.00;2.78;;;;;;;31.94;88.72;99268.75;5139976;27;20108;-64
2023/08/14 10:11:02;;;;;;;5.57;2.45;;;;;;;32.26;92.22;99267.31;5139836;28;20051;-59
2023/08/14 10:13:29;;;;;;;9.35;3.13;;;;;;;32.69;94.24;99261.47;5139826;28;20100;-63
2023/08/14 10:15:58;;;;;;;4.53;2.22;;;;;;;32.23;87.34;99274.00;5139818;28;20078;-66
2023/08/14 10:18:27;;;;;;;7.25;2.45;;;;;;;31.30;100.00;99245.47;5140196;28;20047;-65
2023/08/14 10:20:55;;;;;;;2.75;2.33;;;;;;;31.73;100.00;99257.56;5139870;28;20043;-60
2023/08/14 10:23:22;;;;;;;3.20;2.38;;;;;;;31.45;100.00;99257.41;5140154;28;20370;-58
2023/08/14 10:25:50;;;;;;;5.63;2.70;;;;;;;31.46;100.00;99252.53;5139430;28;20200;-65
2023/08/14 10:28:18;;;;;;;6.95;2.85;;;;;;;30.98;100.00;99236.25;5139572;28;20150;-62
2023/08/14 10:30:45;;;;;;;4.97;2.70;;;;;;;31.29;100.00;99243.91;5139468;28;20146;-66
2023/08/14 10:33:12;;;;;;;5.53;3.00;;;;;;;31.25;100.00;99246.19;5139571;28;20054;-60
2023/08/14 10:35:47;;;;;;;5.20;2.90;;;;;;;31.73;100.00;99259.63;5139678;28;20051;-61
2023/08/14 10:38:15;;;;;;;6.35;2.40;;;;;;;31.88;98.31;99271.56;5139434;27;20076;-59
2023/08/14 10:40:51;;;;;;;4.93;3.45;;;;;;;31.66;100.00;99255.22;5139457;28;20400;-65
2023/08/14 10:43:17;;;;;;;4.75;2.80;;;;;;;32.51;92.77;99276.91;5139016;27;20190;-66
2023/08/14 10:45:43;;;;;;;2.55;2.35;;;;;;;32.72;94.64;99282.34;5139560;28;20433;-62
2023/08/14 10:48:09;;;;;;;5.40;2.80;;;;;;;32.17;95.49;99266.75;5138995;28;20051;-55
2023/08/14 10:50:36;;;;;;;4.40;2.70;;;;;;;31.19;100.00;99254.69;5139344;28;20133;-59
2023/08/14 10:53:04;;;;;;;5.78;2.47;;;;;;;31.53;94.18;99275.50;5139277;28;20134;-58
2023/08/14 10:55:36;;;;;;;3.10;2.55;;;;;;;32.18;100.00;99266.25;5138973;28;20413;-57
2023/08/14 10:58:22;;;;;;;3.60;2.63;;;;;;;32.83;98.03;99271.00;5139156;28;20051;-63
2023/08/14 11:00:51;;;;;;;2.55;2.33;;;;;;;32.69;90.13;99289.06;5138813;28;20122;-64
2023/08/14 11:03:17;;;;;;;4.03;2.53;;;;;;;32.02;97.50;99286.81;5139221;28;20051;-60
2023/08/14 11:05:44;;;;;;;3.10;2.70;;;;;;;31.47;100.00;99277.53;5138862;28;20373;-58
2023/08/14 11:08:11;;;;;;;7.60;3.40;;;;;;;31.11;100.00;99251.50;5139278;27;20051;-55
2023/08/14 11:10:38;;;;;;;5.05;2.30;;;;;;;30.63;100.00;99269.13;5138928;28;20051;-59
2023/08/14 11:13:06;;;;;;;2.95;2.58;;;;;;;30.21;100.00;99241.47;5138946;28;20051;-58
2023/08/14 11:15:33;;;;;;;5.47;2.53;;;;;;;30.28;100.00;99257.97;5138766;28;20051;-58
2023/08/14 11:18:00;;;;;;;2.65;2.25;;;;;;;30.42;100.00;99248.63;5138775;28;20061;-59
2023/08/14 11:20:26;;;;;;;3.78;2.55;;;;;;;30.61;100.00;99234.91;5138617;28;20404;-58
2023/08/14 11:22:53;;;;;;;9.55;2.83;;;;;;;29.99;100.00;99239.13;5138811;28;20050;-60